WXM80 ListenWXM80 Stop

You find our weather info also at:

UK Metoffice

WeatherCloud

Weather Underground

Northeastern Weather Network

AWEKAS

Citizen Weather Observer Program (CWOP)

HAMweather, WeatherForYou, PWS Weather


Weather Underground History page Text

Daily Summary for May 12, 2016 Units:  English    Metric   Both
« Previous Day
Next Day »
Daily Weekly Monthly Yearly Custom
  High: Low: Average:
Temperature: 72.6 °F 47.3 °F 60.9 °F
Dew Point: 55.9 °F 41.6 °F 47.9 °F
Humidity: 93 % 37 % 65 %
Wind Speed: 6.5 mph 0.0 mph 1.6 mph
Wind Gust: 11.0 mph - -
Wind:- - SE
Pressure: 30.14 in 30.00 in -
Precipitation: 0.00 in    
Historical Graphs
 
 
Tabular Data for May 12, 2016
Time Temperature Dew Point Pressure Wind Wind Speed Wind Gust Humidity Rainfall Rate (Hourly)
00:04 58.7 °F 46.5 °F 30.09 in Calm     64 % 0.00 in
00:14 57.7 °F 46.4 °F 30.09 in Calm     66 % 0.00 in
00:19 57.3 °F 46.4 °F 30.09 in WSW 0.4 mph 1.2 mph 67 % 0.00 in
00:24 57.0 °F 46.5 °F 30.09 in Calm     68 % 0.00 in
00:29 56.7 °F 46.6 °F 30.10 in WSW 0.3 mph 1.0 mph 69 % 0.00 in
00:35 56.4 °F 46.4 °F 30.10 in WSW 0.3 mph 1.2 mph 69 % 0.00 in
00:40 56.1 °F 46.8 °F 30.10 in WSW 0.2 mph 1.2 mph 71 % 0.00 in
00:45 55.8 °F 47.3 °F 30.10 in West 1.3 mph 2.0 mph 73 % 0.00 in
00:50 55.5 °F 47.7 °F 30.10 in West 0.5 mph 2.0 mph 75 % 0.00 in
00:55 55.3 °F 47.9 °F 30.10 in NNW 0.5 mph 2.3 mph 76 % 0.00 in
01:00 55.0 °F 47.6 °F 30.10 in Calm     76 % 0.00 in
01:05 54.8 °F 47.7 °F 30.10 in Calm     77 % 0.00 in
01:10 54.6 °F 47.9 °F 30.10 in Calm     78 % 0.00 in
01:15 54.4 °F 47.7 °F 30.10 in Calm   1.2 mph 78 % 0.00 in
01:20 54.0 °F 47.3 °F 30.10 in Calm     78 % 0.00 in
01:26 53.7 °F 47.3 °F 30.10 in Calm   1.2 mph 79 % 0.00 in
01:31 53.5 °F 47.5 °F 30.09 in NNW 0.1 mph 1.2 mph 80 % 0.00 in
01:36 53.2 °F 47.2 °F 30.09 in NNW 0.5 mph 1.2 mph 80 % 0.00 in
01:41 52.9 °F 47.2 °F 30.09 in NNW 0.1 mph 1.2 mph 81 % 0.00 in
01:46 52.7 °F 47.0 °F 30.09 in Calm     81 % 0.00 in
01:51 52.6 °F 46.9 °F 30.09 in Calm     81 % 0.00 in
01:56 52.4 °F 46.7 °F 30.09 in NNW 0.8 mph 1.2 mph 81 % 0.00 in
02:01 52.2 °F 46.9 °F 30.09 in NNW 0.1 mph 1.2 mph 82 % 0.00 in
02:06 52.1 °F 46.8 °F 30.09 in Calm   1.2 mph 82 % 0.00 in
02:11 51.9 °F 46.6 °F 30.09 in Calm   1.2 mph 82 % 0.00 in
02:17 51.8 °F 46.5 °F 30.09 in Calm     82 % 0.00 in
02:22 51.7 °F 46.4 °F 30.09 in Calm     82 % 0.00 in
02:27 51.6 °F 46.3 °F 30.08 in Calm     82 % 0.00 in
02:32 51.4 °F 46.4 °F 30.08 in Calm     83 % 0.00 in
02:37 51.3 °F 46.3 °F 30.09 in Calm     83 % 0.00 in
02:42 51.1 °F 46.1 °F 30.09 in NNW 1.0 mph 1.2 mph 83 % 0.00 in
02:47 50.9 °F 46.2 °F 30.08 in Calm     84 % 0.00 in
02:52 50.8 °F 46.1 °F 30.08 in Calm     84 % 0.00 in
02:57 50.7 °F 46.0 °F 30.08 in Calm   1.2 mph 84 % 0.00 in
03:02 50.6 °F 45.9 °F 30.08 in Calm     84 % 0.00 in
03:08 50.4 °F 45.7 °F 30.08 in Calm     84 % 0.00 in
03:13 50.3 °F 45.6 °F 30.08 in NNW 0.8 mph 2.3 mph 84 % 0.00 in
03:18 50.1 °F 45.5 °F 30.08 in Calm     84 % 0.00 in
03:23 50.0 °F 45.4 °F 30.08 in Calm     84 % 0.00 in
03:28 49.9 °F 45.6 °F 30.08 in Calm     85 % 0.00 in
03:33 49.8 °F 45.5 °F 30.08 in NNW 0.2 mph 1.2 mph 85 % 0.00 in
03:38 49.7 °F 45.4 °F 30.08 in Calm     85 % 0.00 in
03:43 49.6 °F 45.3 °F 30.08 in Calm   1.2 mph 85 % 0.00 in
03:48 49.5 °F 45.5 °F 30.08 in NNW 0.2 mph 1.2 mph 86 % 0.00 in
03:53 49.4 °F 45.4 °F 30.08 in NNW 0.1 mph   86 % 0.00 in
03:59 49.3 °F 45.3 °F 30.08 in Calm     86 % 0.00 in
04:04 49.1 °F 45.1 °F 30.08 in Calm     86 % 0.00 in
04:19 48.8 °F 45.1 °F 30.08 in Calm     87 % 0.00 in
04:24 48.8 °F 45.1 °F 30.08 in Calm   1.0 mph 87 % 0.00 in
04:29 48.7 °F 45.0 °F 30.08 in Calm     87 % 0.00 in
04:34 48.6 °F 44.9 °F 30.09 in Calm     87 % 0.00 in
04:39 48.5 °F 44.8 °F 30.09 in Calm     87 % 0.00 in
04:44 48.4 °F 44.7 °F 30.09 in Calm     87 % 0.00 in
04:50 48.3 °F 44.6 °F 30.09 in NNW 0.5 mph 1.2 mph 87 % 0.00 in
04:55 48.2 °F 44.8 °F 30.09 in Calm     88 % 0.00 in
05:00 48.1 °F 44.7 °F 30.09 in NNW 0.5 mph 1.2 mph 88 % 0.00 in
05:05 48.0 °F 44.6 °F 30.09 in NNW 0.2 mph 1.2 mph 88 % 0.00 in
05:10 47.9 °F 44.5 °F 30.09 in Calm     88 % 0.00 in
05:15 47.8 °F 44.7 °F 30.09 in Calm     89 % 0.00 in
05:20 47.7 °F 44.6 °F 30.09 in Calm   1.2 mph 89 % 0.00 in
05:25 47.6 °F 44.5 °F 30.09 in NNW 1.2 mph 2.3 mph 89 % 0.00 in
05:30 47.6 °F 44.5 °F 30.10 in Calm     89 % 0.00 in
05:36 47.5 °F 44.4 °F 30.10 in Calm     89 % 0.00 in
05:41 47.4 °F 44.3 °F 30.10 in Calm     89 % 0.00 in
05:46 47.4 °F 44.3 °F 30.10 in Calm     89 % 0.00 in
05:51 47.3 °F 44.5 °F 30.11 in Calm   1.2 mph 90 % 0.00 in
05:56 47.4 °F 44.6 °F 30.11 in NNW 0.1 mph 1.2 mph 90 % 0.00 in
06:01 47.4 °F 44.9 °F 30.11 in NNW 0.1 mph 1.2 mph 91 % 0.00 in
06:06 47.5 °F 45.0 °F 30.11 in NNW 0.7 mph 2.3 mph 91 % 0.00 in
06:11 47.6 °F 45.4 °F 30.12 in Calm     92 % 0.00 in
06:16 47.7 °F 45.5 °F 30.12 in Calm     92 % 0.00 in
06:21 47.8 °F 45.6 °F 30.12 in Calm   1.2 mph 92 % 0.00 in
06:27 47.9 °F 45.7 °F 30.12 in Calm   1.2 mph 92 % 0.00 in
06:32 48.3 °F 46.4 °F 30.12 in Calm     93 % 0.00 in
06:37 48.6 °F 46.7 °F 30.13 in Calm     93 % 0.00 in
06:42 49.0 °F 47.1 °F 30.13 in Calm     93 % 0.00 in
06:47 49.4 °F 47.5 °F 30.13 in Calm     93 % 0.00 in
06:52 50.0 °F 48.1 °F 30.12 in Calm     93 % 0.00 in
06:57 50.7 °F 48.7 °F 30.12 in Calm     93 % 0.00 in
07:02 51.7 °F 49.5 °F 30.12 in Calm     92 % 0.00 in
07:07 52.5 °F 50.2 °F 30.12 in Calm     92 % 0.00 in
07:12 53.4 °F 50.8 °F 30.12 in Calm     91 % 0.00 in
07:18 54.3 °F 51.7 °F 30.12 in Calm     91 % 0.00 in
07:23 55.2 °F 52.3 °F 30.12 in NNW 0.1 mph 1.2 mph 90 % 0.00 in
07:28 55.7 °F 51.6 °F 30.12 in NNW 0.8 mph 2.3 mph 86 % 0.00 in
07:33 56.3 °F 50.9 °F 30.12 in Calm     82 % 0.00 in
07:38 56.9 °F 50.8 °F 30.12 in NNW 0.5 mph 1.2 mph 80 % 0.00 in
07:43 57.5 °F 50.7 °F 30.12 in Calm   2.3 mph 78 % 0.00 in
07:48 58.1 °F 49.9 °F 30.13 in NNW 0.5 mph 2.3 mph 74 % 0.00 in
07:53 58.8 °F 48.6 °F 30.13 in NNW 1.4 mph 2.3 mph 69 % 0.00 in
07:58 59.4 °F 50.0 °F 30.13 in NNW 0.7 mph 2.3 mph 71 % 0.00 in
08:03 60.0 °F 49.0 °F 30.13 in ENE 2.2 mph 2.3 mph 67 % 0.00 in
08:09 60.5 °F 49.5 °F 30.13 in ENE 2.3 mph 2.3 mph 67 % 0.00 in
08:14 60.9 °F 47.8 °F 30.13 in ENE 0.2 mph 3.5 mph 62 % 0.00 in
08:19 61.1 °F 46.2 °F 30.14 in ENE 2.4 mph 4.6 mph 58 % 0.00 in
08:24 61.3 °F 46.4 °F 30.14 in ENE 0.9 mph 2.3 mph 58 % 0.00 in
08:29 61.7 °F 46.3 °F 30.14 in ENE 0.4 mph 1.2 mph 57 % 0.00 in
08:34 62.1 °F 45.7 °F 30.14 in ENE 2.5 mph 5.0 mph 55 % 0.00 in
08:39 62.3 °F 45.4 °F 30.14 in NE 1.6 mph 4.6 mph 54 % 0.00 in
08:44 62.5 °F 44.1 °F 30.14 in ENE 2.0 mph 3.5 mph 51 % 0.00 in
08:49 62.7 °F 43.3 °F 30.14 in ENE 2.9 mph 5.0 mph 49 % 0.00 in
08:54 62.8 °F 43.3 °F 30.14 in ENE 2.9 mph 4.6 mph 49 % 0.00 in
09:00 62.7 °F 42.7 °F 30.14 in ENE 3.5 mph 5.8 mph 48 % 0.00 in
09:05 62.7 °F 44.3 °F 30.14 in ENE 1.1 mph 4.6 mph 51 % 0.00 in
09:10 62.8 °F 44.9 °F 30.14 in ENE 1.6 mph 3.5 mph 52 % 0.00 in
09:15 62.8 °F 43.3 °F 30.13 in NE 3.3 mph 6.9 mph 49 % 0.00 in
09:20 62.8 °F 44.4 °F 30.13 in ENE 1.0 mph 2.3 mph 51 % 0.00 in
09:25 63.1 °F 42.5 °F 30.14 in ENE 2.6 mph 4.6 mph 47 % 0.00 in
09:30 63.4 °F 42.2 °F 30.14 in ENE 2.2 mph 5.0 mph 46 % 0.00 in
09:35 63.6 °F 43.5 °F 30.13 in ENE 2.0 mph 8.1 mph 48 % 0.00 in
09:40 63.8 °F 43.2 °F 30.14 in ENE 2.7 mph 4.6 mph 47 % 0.00 in
09:45 64.4 °F 44.3 °F 30.14 in ENE 3.6 mph 5.0 mph 48 % 0.00 in
09:51 65.0 °F 45.9 °F 30.13 in ENE 0.8 mph 2.3 mph 50 % 0.00 in
10:01 66.4 °F 43.2 °F 30.13 in ENE 3.9 mph 6.9 mph 43 % 0.00 in
10:06 65.9 °F 43.4 °F 30.13 in ENE 5.6 mph 9.0 mph 44 % 0.00 in
10:11 65.6 °F 44.3 °F 30.13 in ENE 3.8 mph 5.0 mph 46 % 0.00 in
10:16 65.6 °F 41.9 °F 30.13 in ENE 5.2 mph 8.1 mph 42 % 0.00 in
10:21 65.1 °F 43.8 °F 30.13 in NE 4.8 mph 7.0 mph 46 % 0.00 in
10:27 65.3 °F 45.1 °F 30.13 in ENE 3.1 mph 4.6 mph 48 % 0.00 in
10:32 65.7 °F 45.5 °F 30.13 in ENE 1.8 mph 4.6 mph 48 % 0.00 in
10:37 66.2 °F 43.0 °F 30.12 in ENE 1.0 mph 4.6 mph 43 % 0.00 in
10:42 66.7 °F 41.6 °F 30.12 in ENE 2.9 mph 6.9 mph 40 % 0.00 in
10:47 67.3 °F 44.0 °F 30.12 in ENE 4.0 mph 6.9 mph 43 % 0.00 in
10:52 67.9 °F 45.8 °F 30.11 in ENE 2.5 mph 7.0 mph 45 % 0.00 in
10:57 68.0 °F 43.4 °F 30.12 in NE 4.8 mph 6.9 mph 41 % 0.00 in
11:02 67.6 °F 43.1 °F 30.11 in NE 2.3 mph 6.9 mph 41 % 0.00 in
11:07 67.9 °F 45.2 °F 30.11 in NNE 3.0 mph 5.0 mph 44 % 0.00 in
11:12 68.1 °F 42.9 °F 30.11 in NE 1.9 mph 4.6 mph 40 % 0.00 in
11:18 68.8 °F 44.1 °F 30.11 in ENE 2.7 mph 5.8 mph 41 % 0.00 in
11:28 68.4 °F 42.5 °F 30.11 in NE 3.2 mph 6.9 mph 39 % 0.00 in
11:33 68.6 °F 42.6 °F 30.10 in ENE 1.0 mph 3.5 mph 39 % 0.00 in
11:38 69.3 °F 43.9 °F 30.10 in ENE 1.8 mph 3.5 mph 40 % 0.00 in
11:43 69.4 °F 44.0 °F 30.10 in NE 2.2 mph 3.5 mph 40 % 0.00 in
11:48 69.1 °F 43.1 °F 30.10 in North 3.8 mph 6.9 mph 39 % 0.00 in
11:53 69.2 °F 43.8 °F 30.10 in ENE 6.5 mph 8.0 mph 40 % 0.00 in
11:58 69.3 °F 46.4 °F 30.10 in NE 2.4 mph 4.0 mph 44 % 0.00 in
12:03 69.5 °F 42.1 °F 30.10 in ENE 4.6 mph 9.2 mph 37 % 0.00 in
12:09 68.6 °F 43.3 °F 30.10 in ENE 2.3 mph 6.0 mph 40 % 0.00 in
12:14 68.5 °F 44.5 °F 30.10 in North 2.9 mph 6.9 mph 42 % 0.00 in
12:19 69.2 °F 46.9 °F 30.10 in North 3.9 mph 6.9 mph 45 % 0.00 in
12:24 70.2 °F 47.9 °F 30.10 in North 2.7 mph 4.6 mph 45 % 0.00 in
12:29 70.9 °F 46.0 °F 30.10 in ENE 4.6 mph 8.1 mph 41 % 0.00 in
12:39 69.2 °F 46.9 °F 30.09 in NE 2.4 mph 4.6 mph 45 % 0.00 in
12:44 69.0 °F 47.9 °F 30.09 in ENE 3.0 mph 5.8 mph 47 % 0.00 in
12:49 68.7 °F 47.6 °F 30.09 in ENE 2.9 mph 4.0 mph 47 % 0.00 in
12:54 68.4 °F 46.8 °F 30.09 in ENE 1.7 mph 4.6 mph 46 % 0.00 in
13:00 68.3 °F 46.7 °F 30.08 in ENE 4.5 mph 6.9 mph 46 % 0.00 in
13:05 67.4 °F 47.0 °F 30.08 in ENE 4.0 mph 6.9 mph 48 % 0.00 in
13:10 67.4 °F 48.6 °F 30.08 in ENE 2.5 mph 3.5 mph 51 % 0.00 in
13:15 67.8 °F 49.5 °F 30.08 in ENE 2.1 mph 6.9 mph 52 % 0.00 in
13:20 68.4 °F 50.6 °F 30.08 in ENE 2.3 mph 4.6 mph 53 % 0.00 in
13:25 68.8 °F 48.9 °F 30.08 in East 6.0 mph 8.1 mph 49 % 0.00 in
13:30 69.2 °F 48.7 °F 30.08 in ENE 2.9 mph 7.0 mph 48 % 0.00 in
13:35 69.4 °F 50.5 °F 30.08 in East 2.4 mph 6.0 mph 51 % 0.00 in
13:40 69.5 °F 48.9 °F 30.08 in ENE 5.1 mph 8.1 mph 48 % 0.00 in
13:45 69.3 °F 49.9 °F 30.08 in ENE 4.1 mph 8.1 mph 50 % 0.00 in
13:51 69.7 °F 49.1 °F 30.08 in NNE 2.0 mph 5.0 mph 48 % 0.00 in
13:56 69.9 °F 49.3 °F 30.08 in NE 4.9 mph 6.9 mph 48 % 0.00 in
14:01 70.2 °F 50.1 °F 30.08 in ENE 3.3 mph 5.8 mph 49 % 0.00 in
14:06 70.4 °F 49.8 °F 30.08 in ENE 3.9 mph 7.0 mph 48 % 0.00 in
14:11 70.6 °F 50.5 °F 30.07 in NE 2.6 mph 4.6 mph 49 % 0.00 in
14:16 70.6 °F 48.8 °F 30.07 in East 3.6 mph 5.0 mph 46 % 0.00 in
14:21 70.4 °F 48.6 °F 30.07 in ENE 4.7 mph 6.9 mph 46 % 0.00 in
14:26 70.0 °F 47.7 °F 30.06 in ENE 5.3 mph 8.1 mph 45 % 0.00 in
14:31 69.9 °F 47.0 °F 30.06 in ENE 4.4 mph 6.9 mph 44 % 0.00 in
14:36 69.8 °F 50.3 °F 30.06 in ENE 1.8 mph 3.5 mph 50 % 0.00 in
14:42 70.3 °F 49.7 °F 30.06 in ENE 2.6 mph 6.9 mph 48 % 0.00 in
14:47 70.6 °F 50.0 °F 30.06 in ENE 2.7 mph 4.6 mph 48 % 0.00 in
14:52 70.8 °F 49.6 °F 30.05 in ENE 3.7 mph 7.0 mph 47 % 0.00 in
14:57 71.0 °F 51.4 °F 30.05 in ENE 1.6 mph 3.5 mph 50 % 0.00 in
15:02 71.0 °F 50.3 °F 30.05 in ENE 3.3 mph 5.0 mph 48 % 0.00 in
15:07 70.5 °F 50.4 °F 30.05 in ENE 1.8 mph 4.0 mph 49 % 0.00 in
15:12 70.1 °F 51.7 °F 30.05 in North 2.2 mph 3.5 mph 52 % 0.00 in
15:17 70.5 °F 51.5 °F 30.04 in ENE 1.9 mph 3.5 mph 51 % 0.00 in
15:22 70.2 °F 52.8 °F 30.05 in NE 1.6 mph 3.5 mph 54 % 0.00 in
15:27 69.9 °F 51.5 °F 30.05 in ENE 4.2 mph 5.0 mph 52 % 0.00 in
15:33 69.3 °F 52.4 °F 30.04 in ENE 2.5 mph 3.5 mph 55 % 0.00 in
15:38 69.1 °F 53.7 °F 30.04 in NNE 3.0 mph 3.5 mph 58 % 0.00 in
15:43 69.2 °F 52.3 °F 30.04 in ENE 3.3 mph 5.8 mph 55 % 0.00 in
15:48 69.1 °F 53.7 °F 30.04 in NNE 0.6 mph 2.3 mph 58 % 0.00 in
15:58 69.2 °F 52.8 °F 30.04 in NE 2.4 mph 3.5 mph 56 % 0.00 in
16:03 69.1 °F 53.2 °F 30.04 in ENE 3.3 mph 5.0 mph 57 % 0.00 in
16:08 68.9 °F 53.5 °F 30.04 in NE 3.0 mph 7.0 mph 58 % 0.00 in
16:13 68.8 °F 52.9 °F 30.04 in ENE 2.5 mph 3.5 mph 57 % 0.00 in
16:18 68.8 °F 52.9 °F 30.03 in ENE 3.2 mph 4.0 mph 57 % 0.00 in
16:24 68.8 °F 53.4 °F 30.03 in ENE 3.3 mph 4.6 mph 58 % 0.00 in
16:29 68.8 °F 52.9 °F 30.03 in ENE 4.8 mph 8.1 mph 57 % 0.00 in
16:34 68.6 °F 52.8 °F 30.02 in NE 4.1 mph 8.1 mph 57 % 0.00 in
16:39 68.5 °F 52.2 °F 30.02 in East 5.6 mph 8.1 mph 56 % 0.00 in
16:44 68.5 °F 53.1 °F 30.02 in NE 2.8 mph 6.9 mph 58 % 0.00 in
16:49 68.5 °F 52.7 °F 30.02 in NE 4.8 mph 8.0 mph 57 % 0.00 in
16:54 68.3 °F 53.4 °F 30.03 in ENE 2.1 mph 5.8 mph 59 % 0.00 in
17:04 68.0 °F 54.0 °F 30.03 in Calm   3.5 mph 61 % 0.00 in
17:12 68.1 °F 55.0 °F 30.03 in NE 1.7 mph 2.3 mph 63 % 0.00 in
17:17 68.3 °F 55.2 °F 30.03 in NE 1.3 mph 2.3 mph 63 % 0.00 in
17:22 68.4 °F 54.9 °F 30.03 in ENE 0.3 mph 2.3 mph 62 % 0.00 in
17:28 68.6 °F 55.5 °F 30.02 in NE 1.2 mph 2.3 mph 63 % 0.00 in
17:38 69.0 °F 55.9 °F 30.02 in NE 0.4 mph 1.2 mph 63 % 0.00 in
17:43 69.3 °F 53.9 °F 30.02 in SSE 3.7 mph 5.0 mph 58 % 0.00 in
17:48 70.3 °F 49.7 °F 30.02 in SE 0.3 mph 1.2 mph 48 % 0.00 in
17:53 71.3 °F 49.4 °F 30.01 in SSE 4.1 mph 6.9 mph 46 % 0.00 in
17:58 71.8 °F 50.5 °F 30.01 in SSE 4.2 mph 6.0 mph 47 % 0.00 in
18:03 72.3 °F 48.5 °F 30.01 in SE 3.8 mph 6.0 mph 43 % 0.00 in
18:08 72.6 °F 50.0 °F 30.01 in SSE 1.3 mph 4.6 mph 45 % 0.00 in
18:13 72.6 °F 49.4 °F 30.01 in SE 5.8 mph 11.0 mph 44 % 0.00 in
18:19 72.4 °F 49.9 °F 30.01 in SSE 2.6 mph 4.6 mph 45 % 0.00 in
18:24 72.4 °F 49.9 °F 30.01 in SSE 3.0 mph 5.0 mph 45 % 0.00 in
18:29 72.2 °F 49.1 °F 30.01 in SE 4.3 mph 8.1 mph 44 % 0.00 in
18:34 71.9 °F 49.4 °F 30.01 in SE 2.6 mph 5.8 mph 45 % 0.00 in
18:39 71.5 °F 47.8 °F 30.00 in SSE 6.4 mph 8.1 mph 43 % 0.00 in
18:44 71.1 °F 46.2 °F 30.00 in SE 2.5 mph 4.6 mph 41 % 0.00 in
18:49 70.8 °F 44.6 °F 30.00 in SE 3.4 mph 5.8 mph 39 % 0.00 in
18:54 70.6 °F 43.7 °F 30.00 in SE 4.8 mph 8.1 mph 38 % 0.00 in
18:59 70.2 °F 44.1 °F 30.00 in SSE 2.6 mph 5.0 mph 39 % 0.00 in
19:04 69.9 °F 43.1 °F 30.00 in SSE 5.1 mph 6.0 mph 38 % 0.00 in
19:10 69.5 °F 43.4 °F 30.00 in SE 3.7 mph 5.8 mph 39 % 0.00 in
19:15 69.2 °F 44.5 °F 30.00 in SE 2.2 mph 2.3 mph 41 % 0.00 in
19:20 69.0 °F 45.6 °F 30.00 in SE 0.4 mph 1.2 mph 43 % 0.00 in
19:25 68.7 °F 45.9 °F 30.00 in SE 1.1 mph 8.0 mph 44 % 0.00 in
19:32 68.0 °F 47.0 °F 30.00 in Calm   5.0 mph 47 % 0.00 in
19:37 67.4 °F 47.6 °F 30.00 in SSE 4.1 mph 6.0 mph 49 % 0.00 in
19:42 67.0 °F 47.7 °F 30.00 in SE 1.1 mph 4.6 mph 50 % 0.00 in
19:48 66.7 °F 48.5 °F 30.00 in SSW 0.2 mph 2.3 mph 52 % 0.00 in
19:53 66.3 °F 49.6 °F 30.00 in SSE 0.9 mph 2.3 mph 55 % 0.00 in
19:58 65.8 °F 50.1 °F 30.00 in SSE 0.8 mph 4.6 mph 57 % 0.00 in
20:03 65.4 °F 50.7 °F 30.00 in SE 1.3 mph 3.5 mph 59 % 0.00 in
20:08 65.0 °F 50.8 °F 30.01 in SSE 0.4 mph 2.3 mph 60 % 0.00 in
20:13 64.8 °F 51.0 °F 30.01 in Calm   1.2 mph 61 % 0.00 in
20:18 64.6 °F 50.8 °F 30.01 in SSE 0.2 mph 1.2 mph 61 % 0.00 in
20:23 64.3 °F 51.4 °F 30.01 in WSW 0.3 mph 1.2 mph 63 % 0.00 in
20:28 64.0 °F 51.6 °F 30.01 in SE 1.4 mph 3.5 mph 64 % 0.00 in
20:33 63.4 °F 51.8 °F 30.01 in South 0.9 mph 3.5 mph 66 % 0.00 in
20:44 62.4 °F 52.1 °F 30.01 in Calm   1.2 mph 69 % 0.00 in
20:49 61.9 °F 52.4 °F 30.02 in SE 3.0 mph 5.8 mph 71 % 0.00 in
20:54 61.2 °F 52.5 °F 30.01 in SSE 0.9 mph 2.3 mph 73 % 0.00 in
20:59 60.9 °F 52.6 °F 30.01 in Calm     74 % 0.00 in
21:04 60.6 °F 52.6 °F 30.01 in SE 2.8 mph 4.6 mph 75 % 0.00 in
21:09 60.2 °F 52.6 °F 30.01 in Calm   3.5 mph 76 % 0.00 in
21:14 59.9 °F 52.7 °F 30.01 in SE 1.0 mph 3.5 mph 77 % 0.00 in
21:19 59.6 °F 52.7 °F 30.01 in ESE 0.3 mph 2.3 mph 78 % 0.00 in
21:24 59.4 °F 52.9 °F 30.01 in SE 5.9 mph 10.4 mph 79 % 0.00 in
21:35 58.7 °F 52.5 °F 30.01 in SSW 2.2 mph 8.0 mph 80 % 0.00 in
21:40 58.5 °F 52.4 °F 30.01 in South 4.4 mph 9.2 mph 80 % 0.00 in
21:45 58.3 °F 52.2 °F 30.01 in South 1.9 mph 3.5 mph 80 % 0.00 in
21:50 58.2 °F 52.1 °F 30.01 in SE 2.7 mph 5.8 mph 80 % 0.00 in
21:56 58.0 °F 51.9 °F 30.00 in South 3.2 mph 5.0 mph 80 % 0.00 in
22:01 57.8 °F 51.3 °F 30.01 in SSW 1.4 mph 4.6 mph 79 % 0.00 in
22:06 57.7 °F 51.2 °F 30.00 in SSE 2.6 mph 6.0 mph 79 % 0.00 in
22:11 57.6 °F 51.1 °F 30.00 in SSE 2.1 mph 8.1 mph 79 % 0.00 in
22:16 57.5 °F 51.0 °F 30.01 in South 0.5 mph 3.5 mph 79 % 0.00 in
22:21 57.5 °F 50.7 °F 30.01 in SSE 2.7 mph 6.9 mph 78 % 0.00 in
22:26 57.4 °F 50.6 °F 30.01 in SE 0.9 mph 3.5 mph 78 % 0.00 in
22:31 57.3 °F 50.5 °F 30.01 in SSE 1.1 mph 3.5 mph 78 % 0.00 in
22:36 57.3 °F 50.5 °F 30.01 in South 1.0 mph 3.5 mph 78 % 0.00 in
22:41 57.2 °F 50.1 °F 30.01 in South 0.3 mph 1.2 mph 77 % 0.00 in
22:47 57.2 °F 50.1 °F 30.02 in North 0.1 mph 3.5 mph 77 % 0.00 in
22:52 57.1 °F 50.0 °F 30.02 in West 0.7 mph 3.5 mph 77 % 0.00 in
22:57 57.0 °F 50.2 °F 30.02 in West 1.1 mph 2.3 mph 78 % 0.00 in
23:02 56.8 °F 49.7 °F 30.02 in Calm     77 % 0.00 in
23:07 56.7 °F 49.6 °F 30.02 in West 1.2 mph 3.0 mph 77 % 0.00 in
23:12 56.6 °F 49.8 °F 30.02 in West 0.3 mph 2.0 mph 78 % 0.00 in
23:17 56.3 °F 49.5 °F 30.01 in West 0.6 mph 2.3 mph 78 % 0.00 in
23:22 56.2 °F 49.4 °F 30.01 in Calm     78 % 0.00 in
23:27 56.0 °F 49.6 °F 30.00 in Calm     79 % 0.00 in
23:32 55.8 °F 49.4 °F 30.00 in Calm     79 % 0.00 in
23:38 55.6 °F 49.2 °F 30.00 in Calm     79 % 0.00 in
23:43 55.4 °F 49.0 °F 30.00 in Calm     79 % 0.00 in
23:48 55.1 °F 49.0 °F 30.00 in Calm     80 % 0.00 in
23:53 54.9 °F 49.2 °F 30.00 in Calm     81 % 0.00 in
23:58 54.7 °F 49.0 °F 30.00 in Calm     81 % 0.00 in
Crab Meadow Weather
Compliments of Weather Underground - 3 mb

Script developed by  Jim McMurry - jmcmurry@mwt.net Adapted for the template by  Wim van der Kuil - Leuven-Template.eu

Weather Terms: Warning - A warning is issued when a hazardous weather or hydrologic event is occurring, imminent or likely. A warning means weather conditions pose a threat to life or property. People in the path of the storm need to take protective action.